sensor_id;sensor_type;location;lat;lon;timestamp;pressure;altitude;pressure_sealevel;temperature;humidity
75063;BME280;63981;51.052;13.754;2024-01-15T00:00:35;98578.22;;;4.18;59.80
75063;BME280;63981;51.052;13.754;2024-01-15T00:01:54;98548.97;;;4.00;59.75
75063;BME280;63981;51.052;13.754;2024-01-15T00:03:14;98553.56;;;3.98;59.96
75063;BME280;63981;51.052;13.754;2024-01-15T00:04:40;98570.72;;;4.15;59.95
75063;BME280;63981;51.052;13.754;2024-01-15T00:06:00;98572.38;;;4.16;60.07
75063;BME280;63981;51.052;13.754;2024-01-15T00:07:20;98582.66;;;4.10;59.95
75063;BME280;63981;51.052;13.754;2024-01-15T00:08:40;98581.66;;;4.11;59.56
75063;BME280;63981;51.052;13.754;2024-01-15T00:10:00;98565.13;;;3.96;59.98
75063;BME280;63981;51.052;13.754;2024-01-15T00:11:19;98537.03;;;3.75;59.60
75063;BME280;63981;51.052;13.754;2024-01-15T00:12:40;98509.53;;;3.65;59.90
75063;BME280;63981;51.052;13.754;2024-01-15T00:13:59;98567.09;;;3.94;59.85
75063;BME280;63981;51.052;13.754;2024-01-15T00:15:19;98563.16;;;3.98;59.85
75063;BME280;63981;51.052;13.754;2024-01-15T00:16:40;98570.44;;;4.10;59.64
75063;BME280;63981;51.052;13.754;2024-01-15T00:18:01;98571.16;;;3.96;59.26
75063;BME280;63981;51.052;13.754;2024-01-15T00:19:21;98547.09;;;3.78;59.48
75063;BME280;63981;51.052;13.754;2024-01-15T00:20:41;98583.84;;;3.99;59.98
75063;BME280;63981;51.052;13.754;2024-01-15T00:22:01;98555.06;;;3.85;59.51
75063;BME280;63981;51.052;13.754;2024-01-15T00:23:22;98543.19;;;3.82;59.40
75063;BME280;63981;51.052;13.754;2024-01-15T00:24:41;98545.94;;;3.89;59.41
75063;BME280;63981;51.052;13.754;2024-01-15T00:26:01;98574.22;;;4.00;59.49
75063;BME280;63981;51.052;13.754;2024-01-15T00:27:21;98479.59;;;3.53;59.38
75063;BME280;63981;51.052;13.754;2024-01-15T00:28:41;98541.19;;;3.92;59.79
75063;BME280;63981;51.052;13.754;2024-01-15T00:30:01;98533.53;;;3.91;59.43
75063;BME280;63981;51.052;13.754;2024-01-15T00:31:21;98481.69;;;3.57;59.44
75063;BME280;63981;51.052;13.754;2024-01-15T00:32:41;98552.41;;;4.01;60.14
75063;BME280;63981;51.052;13.754;2024-01-15T00:34:01;98547.66;;;4.04;59.63
75063;BME280;63981;51.052;13.754;2024-01-15T00:35:20;98569.44;;;4.19;59.50
75063;BME280;63981;51.052;13.754;2024-01-15T00:36:40;98565.03;;;4.20;59.47
75063;BME280;63981;51.052;13.754;2024-01-15T00:37:59;98541.63;;;4.04;59.80
75063;BME280;63981;51.052;13.754;2024-01-15T00:39:19;98567.34;;;4.15;59.54
75063;BME280;63981;51.052;13.754;2024-01-15T00:40:39;98562.91;;;4.15;59.86
75063;BME280;63981;51.052;13.754;2024-01-15T00:41:59;98569.13;;;4.06;59.40
75063;BME280;63981;51.052;13.754;2024-01-15T00:43:18;98561.16;;;4.08;59.59
75063;BME280;63981;51.052;13.754;2024-01-15T00:44:38;98537.47;;;3.87;59.84
75063;BME280;63981;51.052;13.754;2024-01-15T00:45:58;98526.09;;;3.80;59.31
75063;BME280;63981;51.052;13.754;2024-01-15T00:47:18;98553.06;;;3.95;59.48
75063;BME280;63981;51.052;13.754;2024-01-15T00:48:38;98540.41;;;3.84;59.49
75063;BME280;63981;51.052;13.754;2024-01-15T00:49:57;98554.69;;;3.96;59.45
75063;BME280;63981;51.052;13.754;2024-01-15T00:51:17;98558.75;;;3.98;59.49
75063;BME280;63981;51.052;13.754;2024-01-15T00:52:37;98562.97;;;3.99;59.34
75063;BME280;63981;51.052;13.754;2024-01-15T00:53:56;98556.63;;;4.02;59.51
75063;BME280;63981;51.052;13.754;2024-01-15T00:55:16;98513.88;;;3.80;59.48
75063;BME280;63981;51.052;13.754;2024-01-15T00:56:36;98554.00;;;4.10;59.40
75063;BME280;63981;51.052;13.754;2024-01-15T00:57:56;98549.75;;;4.09;59.69
75063;BME280;63981;51.052;13.754;2024-01-15T00:59:16;98555.78;;;4.09;59.74
75063;BME280;63981;51.052;13.754;2024-01-15T01:00:36;98517.72;;;3.92;59.48
75063;BME280;63981;51.052;13.754;2024-01-15T01:01:56;98540.97;;;4.10;59.33
75063;BME280;63981;51.052;13.754;2024-01-15T01:03:15;98498.72;;;3.76;59.49
75063;BME280;63981;51.052;13.754;2024-01-15T01:04:35;98512.25;;;3.79;59.68
75063;BME280;63981;51.052;13.754;2024-01-15T01:05:55;98537.56;;;4.01;59.76
75063;BME280;63981;51.052;13.754;2024-01-15T01:07:14;98535.25;;;4.06;59.40
75063;BME280;63981;51.052;13.754;2024-01-15T01:08:34;98541.09;;;4.08;59.35
75063;BME280;63981;51.052;13.754;2024-01-15T01:09:54;98523.94;;;3.91;59.23
75063;BME280;63981;51.052;13.754;2024-01-15T01:11:15;98538.72;;;3.99;59.83
75063;BME280;63981;51.052;13.754;2024-01-15T01:12:35;98529.44;;;3.96;59.65
75063;BME280;63981;51.052;13.754;2024-01-15T01:13:55;98530.59;;;3.94;59.63
75063;BME280;63981;51.052;13.754;2024-01-15T01:15:16;98489.38;;;3.59;59.59
75063;BME280;63981;51.052;13.754;2024-01-15T01:16:36;98533.06;;;3.87;59.65
75063;BME280;63981;51.052;13.754;2024-01-15T01:17:58;98489.19;;;3.60;59.47
75063;BME280;63981;51.052;13.754;2024-01-15T01:19:17;98525.44;;;3.78;59.84
75063;BME280;63981;51.052;13.754;2024-01-15T01:20:37;98521.38;;;3.75;59.70
75063;BME280;63981;51.052;13.754;2024-01-15T01:21:57;98462.75;;;3.40;59.39
75063;BME280;63981;51.052;13.754;2024-01-15T01:23:17;98529.84;;;3.77;59.74
75063;BME280;63981;51.052;13.754;2024-01-15T01:24:36;98514.84;;;3.79;59.62
75063;BME280;63981;51.052;13.754;2024-01-15T01:25:56;98517.31;;;3.73;59.62
75063;BME280;63981;51.052;13.754;2024-01-15T01:27:16;98493.28;;;3.55;59.83
75063;BME280;63981;51.052;13.754;2024-01-15T01:28:36;98515.22;;;3.68;60.04
75063;BME280;63981;51.052;13.754;2024-01-15T01:29:55;98523.88;;;3.69;59.55
75063;BME280;63981;51.052;13.754;2024-01-15T01:31:15;98520.25;;;3.70;59.62
75063;BME280;63981;51.052;13.754;2024-01-15T01:32:36;98524.00;;;3.75;59.05
75063;BME280;63981;51.052;13.754;2024-01-15T01:33:56;98504.75;;;3.76;59.80
75063;BME280;63981;51.052;13.754;2024-01-15T01:35:16;98501.50;;;3.74;59.58
75063;BME280;63981;51.052;13.754;2024-01-15T01:36:36;98476.66;;;3.56;59.86
75063;BME280;63981;51.052;13.754;2024-01-15T01:37:55;98463.69;;;3.47;60.04
75063;BME280;63981;51.052;13.754;2024-01-15T01:39:15;98496.84;;;3.62;59.79
75063;BME280;63981;51.052;13.754;2024-01-15T01:40:35;98470.84;;;3.45;60.22
75063;BME280;63981;51.052;13.754;2024-01-15T01:41:54;98492.44;;;3.62;59.95
75063;BME280;63981;51.052;13.754;2024-01-15T01:43:14;98450.69;;;3.31;59.94
75063;BME280;63981;51.052;13.754;2024-01-15T01:44:33;98451.19;;;3.35;60.17
75063;BME280;63981;51.052;13.754;2024-01-15T01:45:56;98480.91;;;3.57;60.29
75063;BME280;63981;51.052;13.754;2024-01-15T01:47:16;98481.69;;;3.57;60.04
75063;BME280;63981;51.052;13.754;2024-01-15T01:48:36;98454.09;;;3.40;59.70
75063;BME280;63981;51.052;13.754;2024-01-15T01:49:56;98484.47;;;3.56;60.08
75063;BME280;63981;51.052;13.754;2024-01-15T01:51:16;98485.75;;;3.60;60.14
75063;BME280;63981;51.052;13.754;2024-01-15T01:52:36;98490.69;;;3.55;59.72
75063;BME280;63981;51.052;13.754;2024-01-15T01:53:55;98491.84;;;3.52;60.04
75063;BME280;63981;51.052;13.754;2024-01-15T01:55:15;98496.53;;;3.57;59.99
75063;BME280;63981;51.052;13.754;2024-01-15T01:56:35;98470.88;;;3.29;59.62
75063;BME280;63981;51.052;13.754;2024-01-15T01:57:55;98497.94;;;3.67;59.51
75063;BME280;63981;51.052;13.754;2024-01-15T01:59:15;98502.53;;;3.65;59.43
75063;BME280;63981;51.052;13.754;2024-01-15T02:00:36;98500.06;;;3.72;59.83
75063;BME280;63981;51.052;13.754;2024-01-15T02:01:56;98499.72;;;3.75;60.04
75063;BME280;63981;51.052;13.754;2024-01-15T02:03:16;98496.47;;;3.73;59.53
75063;BME280;63981;51.052;13.754;2024-01-15T02:04:36;98498.72;;;3.76;59.93
75063;BME280;63981;51.052;13.754;2024-01-15T02:05:57;98467.56;;;3.52;59.25
75063;BME280;63981;51.052;13.754;2024-01-15T02:07:18;98394.03;;;3.03;59.45
75063;BME280;63981;51.052;13.754;2024-01-15T02:08:38;98473.75;;;3.59;59.27
75063;BME280;63981;51.052;13.754;2024-01-15T02:09:58;98475.00;;;3.63;59.69
75063;BME280;63981;51.052;13.754;2024-01-15T02:11:17;98489.31;;;3.75;59.38
75063;BME280;63981;51.052;13.754;2024-01-15T02:12:37;98488.97;;;3.78;59.79
75063;BME280;63981;51.052;13.754;2024-01-15T02:13:57;98486.06;;;3.73;59.64
75063;BME280;63981;51.052;13.754;2024-01-15T02:15:17;98449.78;;;3.63;59.20
75063;BME280;63981;51.052;13.754;2024-01-15T02:16:37;98454.69;;;3.58;59.07
75063;BME280;63981;51.052;13.754;2024-01-15T02:18:00;98486.50;;;3.76;59.11
75063;BME280;63981;51.052;13.754;2024-01-15T02:19:20;98481.16;;;3.78;59.66
75063;BME280;63981;51.052;13.754;2024-01-15T02:20:40;98478.41;;;3.71;59.04
75063;BME280;63981;51.052;13.754;2024-01-15T02:21:59;98482.75;;;3.79;59.11
75063;BME280;63981;51.052;13.754;2024-01-15T02:23:19;98440.75;;;3.43;59.13
75063;BME280;63981;51.052;13.754;2024-01-15T02:24:39;98464.13;;;3.59;59.15
75063;BME280;63981;51.052;13.754;2024-01-15T02:25:59;98476.91;;;3.77;59.22
75063;BME280;63981;51.052;13.754;2024-01-15T02:27:18;98483.09;;;3.76;59.25
75063;BME280;63981;51.052;13.754;2024-01-15T02:28:39;98473.66;;;3.75;59.40
75063;BME280;63981;51.052;13.754;2024-01-15T02:29:58;98474.00;;;3.72;59.09
75063;BME280;63981;51.052;13.754;2024-01-15T02:31:18;98468.19;;;3.62;59.09
75063;BME280;63981;51.052;13.754;2024-01-15T02:32:38;98481.69;;;3.65;59.15
75063;BME280;63981;51.052;13.754;2024-01-15T02:33:58;98450.81;;;3.46;59.30
75063;BME280;63981;51.052;13.754;2024-01-15T02:35:18;98467.69;;;3.66;59.71
75063;BME280;63981;51.052;13.754;2024-01-15T02:36:37;98455.38;;;3.52;59.88
75063;BME280;63981;51.052;13.754;2024-01-15T02:37:57;98462.47;;;3.66;60.03
75063;BME280;63981;51.052;13.754;2024-01-15T02:39:17;98462.16;;;3.61;60.08
75063;BME280;63981;51.052;13.754;2024-01-15T02:40:38;98464.25;;;3.66;59.93
75063;BME280;63981;51.052;13.754;2024-01-15T02:41:57;98435.69;;;3.49;59.58
75063;BME280;63981;51.052;13.754;2024-01-15T02:43:17;98461.81;;;3.64;59.81
75063;BME280;63981;51.052;13.754;2024-01-15T02:44:38;98449.78;;;3.63;59.96
75063;BME280;63981;51.052;13.754;2024-01-15T02:45:58;98459.94;;;3.50;60.18
75063;BME280;63981;51.052;13.754;2024-01-15T02:47:18;98449.97;;;3.54;60.79
75063;BME280;63981;51.052;13.754;2024-01-15T02:48:37;98447.56;;;3.52;59.98
75063;BME280;63981;51.052;13.754;2024-01-15T02:49:57;98453.56;;;3.53;59.63
75063;BME280;63981;51.052;13.754;2024-01-15T02:51:17;98450.31;;;3.50;59.73
75063;BME280;63981;51.052;13.754;2024-01-15T02:52:37;98388.59;;;3.20;60.09
75063;BME280;63981;51.052;13.754;2024-01-15T02:53:56;98452.56;;;3.62;60.11
75063;BME280;63981;51.052;13.754;2024-01-15T02:55:16;98441.53;;;3.52;59.86
75063;BME280;63981;51.052;13.754;2024-01-15T02:56:36;98468.72;;;3.49;59.92
75063;BME280;63981;51.052;13.754;2024-01-15T02:57:56;98447.88;;;3.49;59.83
75063;BME280;63981;51.052;13.754;2024-01-15T02:59:16;98454.09;;;3.40;59.27
75063;BME280;63981;51.052;13.754;2024-01-15T03:00:35;98385.16;;;3.20;59.78
75063;BME280;63981;51.052;13.754;2024-01-15T03:01:55;98447.75;;;3.42;59.97
75063;BME280;63981;51.052;13.754;2024-01-15T03:03:15;98420.13;;;3.25;59.88
75063;BME280;63981;51.052;13.754;2024-01-15T03:04:34;98449.72;;;3.40;60.17
75063;BME280;63981;51.052;13.754;2024-01-15T03:05:54;98453.09;;;3.49;59.96
75063;BME280;63981;51.052;13.754;2024-01-15T03:07:14;98439.25;;;3.48;59.92
75063;BME280;63981;51.052;13.754;2024-01-15T03:08:33;98438.09;;;3.51;59.66
75063;BME280;63981;51.052;13.754;2024-01-15T03:09:54;98430.97;;;3.45;59.89
75063;BME280;63981;51.052;13.754;2024-01-15T03:11:14;98441.41;;;3.45;59.79
75063;BME280;63981;51.052;13.754;2024-01-15T03:12:33;98434.22;;;3.47;59.93
75063;BME280;63981;51.052;13.754;2024-01-15T03:13:53;98428.03;;;3.48;59.70
75063;BME280;63981;51.052;13.754;2024-01-15T03:15:13;98396.09;;;3.15;59.56
75063;BME280;63981;51.052;13.754;2024-01-15T03:16:33;98443.19;;;3.44;59.97
75063;BME280;63981;51.052;13.754;2024-01-15T03:17:52;98436.69;;;3.40;59.51
75063;BME280;63981;51.052;13.754;2024-01-15T03:19:12;98412.84;;;3.21;59.87
75063;BME280;63981;51.052;13.754;2024-01-15T03:20:32;98406.66;;;3.22;59.59
75063;BME280;63981;51.052;13.754;2024-01-15T03:21:52;98438.63;;;3.46;59.57
75063;BME280;63981;51.052;13.754;2024-01-15T03:23:11;98442.19;;;3.45;59.71
75063;BME280;63981;51.052;13.754;2024-01-15T03:24:31;98443.00;;;3.46;59.17
75063;BME280;63981;51.052;13.754;2024-01-15T03:25:51;98434.59;;;3.36;59.56
75063;BME280;63981;51.052;13.754;2024-01-15T03:27:10;98428.09;;;3.32;60.06
75063;BME280;63981;51.052;13.754;2024-01-15T03:28:30;98404.25;;;3.12;59.22
75063;BME280;63981;51.052;13.754;2024-01-15T03:29:50;98424.06;;;3.21;60.29
75063;BME280;63981;51.052;13.754;2024-01-15T03:31:09;98375.69;;;2.88;59.54
75063;BME280;63981;51.052;13.754;2024-01-15T03:32:29;98392.25;;;2.95;59.44
75063;BME280;63981;51.052;13.754;2024-01-15T03:33:49;98441.78;;;3.26;59.49
75063;BME280;63981;51.052;13.754;2024-01-15T03:35:09;98439.34;;;3.24;60.02
75063;BME280;63981;51.052;13.754;2024-01-15T03:36:28;98420.50;;;3.06;59.81
75063;BME280;63981;51.052;13.754;2024-01-15T03:37:48;98439.63;;;3.29;59.78
75063;BME280;63981;51.052;13.754;2024-01-15T03:39:08;98455.13;;;3.23;59.95
75063;BME280;63981;51.052;13.754;2024-01-15T03:40:28;98451.38;;;3.25;59.84
75063;BME280;63981;51.052;13.754;2024-01-15T03:41:47;98463.72;;;3.31;59.61
75063;BME280;63981;51.052;13.754;2024-01-15T03:43:07;98450.56;;;3.25;59.45
75063;BME280;63981;51.052;13.754;2024-01-15T03:44:27;98434.34;;;3.15;59.59
75063;BME280;63981;51.052;13.754;2024-01-15T03:45:46;98451.19;;;3.27;60.14
75063;BME280;63981;51.052;13.754;2024-01-15T03:47:06;98398.09;;;2.97;59.86
75063;BME280;63981;51.052;13.754;2024-01-15T03:48:25;98466.50;;;3.38;59.92
75063;BME280;63981;51.052;13.754;2024-01-15T03:49:45;98461.78;;;3.25;60.71
75063;BME280;63981;51.052;13.754;2024-01-15T03:51:04;98446.81;;;3.27;60.03
75063;BME280;63981;51.052;13.754;2024-01-15T03:52:24;98454.78;;;3.26;59.80
75063;BME280;63981;51.052;13.754;2024-01-15T03:53:44;98410.63;;;2.94;60.21
75063;BME280;63981;51.052;13.754;2024-01-15T03:55:04;98453.50;;;3.22;60.08
75063;BME280;63981;51.052;13.754;2024-01-15T03:56:24;98418.53;;;3.08;60.38
75063;BME280;63981;51.052;13.754;2024-01-15T03:57:44;98445.03;;;3.28;60.39
75063;BME280;63981;51.052;13.754;2024-01-15T03:59:04;98454.47;;;3.29;60.24
75063;BME280;63981;51.052;13.754;2024-01-15T04:00:23;98468.00;;;3.24;60.76
75063;BME280;63981;51.052;13.754;2024-01-15T04:01:48;98408.34;;;2.99;60.47
75063;BME280;63981;51.052;13.754;2024-01-15T04:03:09;98422.78;;;3.09;60.72
75063;BME280;63981;51.052;13.754;2024-01-15T04:04:29;98449.59;;;3.26;60.77
75063;BME280;63981;51.052;13.754;2024-01-15T04:05:48;98451.88;;;3.21;60.63
75063;BME280;63981;51.052;13.754;2024-01-15T04:07:09;98446.22;;;3.17;60.24
75063;BME280;63981;51.052;13.754;2024-01-15T04:08:29;98443.75;;;3.16;60.60
75063;BME280;63981;51.052;13.754;2024-01-15T04:09:49;98450.25;;;3.20;60.50
75063;BME280;63981;51.052;13.754;2024-01-15T04:11:08;98450.75;;;3.15;60.90
75063;BME280;63981;51.052;13.754;2024-01-15T04:12:28;98400.06;;;2.87;60.99
75063;BME280;63981;51.052;13.754;2024-01-15T04:13:48;98384.81;;;2.76;61.06
75063;BME280;63981;51.052;13.754;2024-01-15T04:15:08;98410.81;;;2.84;60.80
75063;BME280;63981;51.052;13.754;2024-01-15T04:16:28;98450.09;;;3.13;60.39
75063;BME280;63981;51.052;13.754;2024-01-15T04:17:47;98454.97;;;3.16;60.71
75063;BME280;63981;51.052;13.754;2024-01-15T04:19:07;98441.47;;;3.13;60.74
75063;BME280;63981;51.052;13.754;2024-01-15T04:20:27;98434.16;;;3.08;61.05
75063;BME280;63981;51.052;13.754;2024-01-15T04:21:47;98442.66;;;3.10;61.02
75063;BME280;63981;51.052;13.754;2024-01-15T04:23:07;98440.19;;;3.09;60.22
75063;BME280;63981;51.052;13.754;2024-01-15T04:24:26;98436.63;;;3.10;60.64
75063;BME280;63981;51.052;13.754;2024-01-15T04:25:46;98429.78;;;3.09;60.22
75063;BME280;63981;51.052;13.754;2024-01-15T04:27:06;98422.16;;;3.07;60.43
75063;BME280;63981;51.052;13.754;2024-01-15T04:28:26;98390.97;;;2.83;60.33
75063;BME280;63981;51.052;13.754;2024-01-15T04:29:46;98428.31;;;3.06;60.38
75063;BME280;63981;51.052;13.754;2024-01-15T04:30:47;98427.34;;;2.99;60.56
75063;BME280;63981;51.052;13.754;2024-01-15T04:31:48;98431.78;;;2.99;60.56
75063;BME280;63981;51.052;13.754;2024-01-15T04:32:49;98385.31;;;2.71;61.08
75063;BME280;63981;51.052;13.754;2024-01-15T04:33:50;98431.91;;;2.97;60.48
75063;BME280;63981;51.052;13.754;2024-01-15T04:34:51;98402.69;;;2.79;60.57
75063;BME280;63981;51.052;13.754;2024-01-15T04:35:52;98433.88;;;2.95;60.84
75063;BME280;63981;51.052;13.754;2024-01-15T04:36:53;98423.47;;;2.95;60.79
75063;BME280;63981;51.052;13.754;2024-01-15T04:37:54;98422.16;;;2.99;60.19
75063;BME280;63981;51.052;13.754;2024-01-15T04:38:56;98428.19;;;3.00;60.79
75063;BME280;63981;51.052;13.754;2024-01-15T04:39:57;98417.44;;;2.95;60.73
75063;BME280;63981;51.052;13.754;2024-01-15T04:40:58;98381.09;;;2.62;60.13
75063;BME280;63981;51.052;13.754;2024-01-15T04:41:59;98428.34;;;2.98;60.36
75063;BME280;63981;51.052;13.754;2024-01-15T04:43:00;98381.25;;;2.61;60.33
75063;BME280;63981;51.052;13.754;2024-01-15T04:44:02;98417.25;;;3.04;60.28
75063;BME280;63981;51.052;13.754;2024-01-15T04:45:03;98430.28;;;3.04;59.81
75063;BME280;63981;51.052;13.754;2024-01-15T04:46:06;98392.59;;;2.84;60.14
75063;BME280;63981;51.052;13.754;2024-01-15T04:47:07;98422.47;;;3.12;60.43
75063;BME280;63981;51.052;13.754;2024-01-15T04:48:09;98423.09;;;3.14;60.13
75063;BME280;63981;51.052;13.754;2024-01-15T04:49:11;98435.47;;;3.12;59.53
75063;BME280;63981;51.052;13.754;2024-01-15T04:50:12;98423.13;;;3.06;60.31
75063;BME280;63981;51.052;13.754;2024-01-15T04:51:13;98415.03;;;2.93;60.17
75063;BME280;63981;51.052;13.754;2024-01-15T04:52:14;98432.72;;;2.98;59.95
75063;BME280;63981;51.052;13.754;2024-01-15T04:53:15;98434.19;;;2.92;59.29
75063;BME280;63981;51.052;13.754;2024-01-15T04:54:16;98429.66;;;2.86;60.04
75063;BME280;63981;51.052;13.754;2024-01-15T04:55:18;98431.63;;;2.84;59.50
75063;BME280;63981;51.052;13.754;2024-01-15T04:56:19;98445.28;;;2.78;59.87
75063;BME280;63981;51.052;13.754;2024-01-15T04:57:20;98429.53;;;2.63;61.14
75063;BME280;63981;51.052;13.754;2024-01-15T04:58:21;98427.59;;;2.65;60.65
75063;BME280;63981;51.052;13.754;2024-01-15T04:59:26;98409.53;;;2.48;59.96
75063;BME280;63981;51.052;13.754;2024-01-15T05:00:27;98440.44;;;2.59;60.49
75063;BME280;63981;51.052;13.754;2024-01-15T05:01:32;98427.91;;;2.46;60.64
75063;BME280;63981;51.052;13.754;2024-01-15T05:02:33;98444.81;;;2.50;60.57
75063;BME280;63981;51.052;13.754;2024-01-15T05:03:34;98431.81;;;2.42;60.88
75063;BME280;63981;51.052;13.754;2024-01-15T05:04:36;98435.22;;;2.43;60.65
75063;BME280;63981;51.052;13.754;2024-01-15T05:05:37;98433.91;;;2.39;60.78
75063;BME280;63981;51.052;13.754;2024-01-15T05:06:38;98430.19;;;2.33;60.42
75063;BME280;63981;51.052;13.754;2024-01-15T05:07:39;98429.53;;;2.23;60.80
75063;BME280;63981;51.052;13.754;2024-01-15T05:08:40;98435.53;;;2.24;60.67
75063;BME280;63981;51.052;13.754;2024-01-15T05:09:41;98410.47;;;1.90;60.58
75063;BME280;63981;51.052;13.754;2024-01-15T05:10:42;98423.66;;;2.05;60.97
75063;BME280;63981;51.052;13.754;2024-01-15T05:11:43;98419.44;;;1.96;61.09
75063;BME280;63981;51.052;13.754;2024-01-15T05:12:44;98445.44;;;2.12;60.91
75063;BME280;63981;51.052;13.754;2024-01-15T05:14:04;98451.13;;;2.07;60.44
75063;BME280;63981;51.052;13.754;2024-01-15T05:15:05;98452.72;;;2.08;60.70
75063;BME280;63981;51.052;13.754;2024-01-15T05:16:06;98453.84;;;1.98;61.43
75063;BME280;63981;51.052;13.754;2024-01-15T05:17:08;98425.25;;;1.82;61.30
75063;BME280;63981;51.052;13.754;2024-01-15T05:18:08;98446.06;;;1.98;61.49
75063;BME280;63981;51.052;13.754;2024-01-15T05:19:10;98446.38;;;1.95;61.13
75063;BME280;63981;51.052;13.754;2024-01-15T05:20:10;98459.19;;;1.96;61.18
75063;BME280;63981;51.052;13.754;2024-01-15T05:21:12;98405.56;;;1.71;61.39
75063;BME280;63981;51.052;13.754;2024-01-15T05:22:13;98421.97;;;1.72;61.87
75063;BME280;63981;51.052;13.754;2024-01-15T05:23:14;98414.59;;;1.59;61.27
75063;BME280;63981;51.052;13.754;2024-01-15T05:24:15;98455.13;;;1.86;60.92
75063;BME280;63981;51.052;13.754;2024-01-15T05:25:16;98450.91;;;1.93;61.09
75063;BME280;63981;51.052;13.754;2024-01-15T05:26:17;98454.28;;;1.85;61.84
75063;BME280;63981;51.052;13.754;2024-01-15T05:27:18;98459.78;;;1.82;61.57
75063;BME280;63981;51.052;13.754;2024-01-15T05:28:19;98462.75;;;1.87;61.25
75063;BME280;63981;51.052;13.754;2024-01-15T05:29:20;98472.78;;;1.74;62.51
75063;BME280;63981;51.052;13.754;2024-01-15T05:30:21;98455.41;;;1.83;61.71
75063;BME280;63981;51.052;13.754;2024-01-15T05:31:22;98457.38;;;1.81;62.84
75063;BME280;63981;51.052;13.754;2024-01-15T05:32:23;98464.03;;;1.83;62.38
75063;BME280;63981;51.052;13.754;2024-01-15T05:33:24;98452.69;;;1.84;62.66
75063;BME280;63981;51.052;13.754;2024-01-15T05:34:25;98453.00;;;1.81;61.80
75063;BME280;63981;51.052;13.754;2024-01-15T05:35:26;98457.53;;;1.87;62.09
75063;BME280;63981;51.052;13.754;2024-01-15T05:36:27;98455.94;;;1.86;62.08
75063;BME280;63981;51.052;13.754;2024-01-15T05:37:28;98439.00;;;1.82;62.20
75063;BME280;63981;51.052;13.754;2024-01-15T05:38:30;98429.28;;;1.76;61.41
75063;BME280;63981;51.052;13.754;2024-01-15T05:39:31;98461.13;;;1.86;61.76
75063;BME280;63981;51.052;13.754;2024-01-15T05:40:32;98455.13;;;1.86;62.00
75063;BME280;63981;51.052;13.754;2024-01-15T05:41:33;98451.53;;;1.79;62.22
75063;BME280;63981;51.052;13.754;2024-01-15T05:42:34;98450.53;;;1.80;61.70
75063;BME280;63981;51.052;13.754;2024-01-15T05:43:35;98443.38;;;1.74;62.43
75063;BME280;63981;51.052;13.754;2024-01-15T05:44:36;98446.28;;;1.71;61.82
75063;BME280;63981;51.052;13.754;2024-01-15T05:45:38;98450.22;;;1.75;62.20
75063;BME280;63981;51.052;13.754;2024-01-15T05:46:39;98398.38;;;1.49;61.81
75063;BME280;63981;51.052;13.754;2024-01-15T05:47:40;98407.16;;;1.56;62.13
75063;BME280;63981;51.052;13.754;2024-01-15T05:48:41;98438.19;;;1.74;62.64
75063;BME280;63981;51.052;13.754;2024-01-15T05:49:42;98457.03;;;1.76;62.32
75063;BME280;63981;51.052;13.754;2024-01-15T05:50:43;98466.94;;;1.72;61.62
75063;BME280;63981;51.052;13.754;2024-01-15T05:51:44;98459.94;;;1.73;61.79
75063;BME280;63981;51.052;13.754;2024-01-15T05:52:45;98460.91;;;1.72;62.19
75063;BME280;63981;51.052;13.754;2024-01-15T05:53:46;98463.69;;;1.78;62.12
75063;BME280;63981;51.052;13.754;2024-01-15T05:54:47;98430.81;;;1.53;61.77
75063;BME280;63981;51.052;13.754;2024-01-15T05:55:49;98417.38;;;1.66;61.53
75063;BME280;63981;51.052;13.754;2024-01-15T05:56:50;98457.72;;;1.94;61.60
75063;BME280;63981;51.052;13.754;2024-01-15T05:57:51;98455.63;;;1.97;61.54
75063;BME280;63981;51.052;13.754;2024-01-15T05:58:52;98454.63;;;1.98;61.45
75063;BME280;63981;51.052;13.754;2024-01-15T05:59:53;98446.41;;;2.03;61.39
75063;BME280;63981;51.052;13.754;2024-01-15T06:00:54;98454.03;;;2.04;61.40
75063;BME280;63981;51.052;13.754;2024-01-15T06:01:55;98460.19;;;1.95;61.27
75063;BME280;63981;51.052;13.754;2024-01-15T06:02:56;98454.50;;;2.00;60.88
75063;BME280;63981;51.052;13.754;2024-01-15T06:03:57;98420.84;;;1.74;61.28
75063;BME280;63981;51.052;13.754;2024-01-15T06:04:58;98414.66;;;1.75;61.17
75063;BME280;63981;51.052;13.754;2024-01-15T06:06:01;98408.50;;;1.76;61.43
75063;BME280;63981;51.052;13.754;2024-01-15T06:07:05;98450.94;;;2.09;61.60
75063;BME280;63981;51.052;13.754;2024-01-15T06:08:06;98439.41;;;2.12;61.00
75063;BME280;63981;51.052;13.754;2024-01-15T06:09:07;98424.44;;;1.97;60.74
75063;BME280;63981;51.052;13.754;2024-01-15T06:10:09;98446.09;;;2.14;61.16
75063;BME280;63981;51.052;13.754;2024-01-15T06:11:10;98450.81;;;2.19;61.01
75063;BME280;63981;51.052;13.754;2024-01-15T06:12:11;98441.22;;;2.19;60.54
75063;BME280;63981;51.052;13.754;2024-01-15T06:13:13;98424.66;;;2.12;60.70
75063;BME280;63981;51.052;13.754;2024-01-15T06:14:14;98434.25;;;2.28;61.11
75063;BME280;63981;51.052;13.754;2024-01-15T06:15:15;98438.47;;;2.37;60.91
75063;BME280;63981;51.052;13.754;2024-01-15T06:16:16;98435.38;;;2.41;60.45
75063;BME280;63981;51.052;13.754;2024-01-15T06:17:20;98406.59;;;2.27;60.70
75063;BME280;63981;51.052;13.754;2024-01-15T06:18:21;98440.94;;;2.54;60.74
75063;BME280;63981;51.052;13.754;2024-01-15T06:19:22;98425.63;;;2.43;60.15
75063;BME280;63981;51.052;13.754;2024-01-15T06:20:23;98426.47;;;2.52;59.59
75063;BME280;63981;51.052;13.754;2024-01-15T06:21:24;98432.63;;;2.59;60.03
75063;BME280;63981;51.052;13.754;2024-01-15T06:22:26;98443.03;;;2.59;60.22
75063;BME280;63981;51.052;13.754;2024-01-15T06:23:27;98425.31;;;2.62;59.96
75063;BME280;63981;51.052;13.754;2024-01-15T06:24:28;98418.47;;;2.53;60.00
75063;BME280;63981;51.052;13.754;2024-01-15T06:25:29;98426.13;;;2.63;59.46
75063;BME280;63981;51.052;13.754;2024-01-15T06:26:30;98404.34;;;2.56;59.78
75063;BME280;63981;51.052;13.754;2024-01-15T06:27:31;98429.38;;;2.73;59.80